Time;durP1;ratioP1;P1;durP2;ratioP2;P2;SDS_P1;SDS_P2;PMS_P1;PMS_P2;Temp;Humidity;BMP_temperature;BMP_pressure;BME280_temperature;BME280_humidity;BME280_pressure;Samples;Min_cycle;Max_cycle;Signal;HPM_P1;HPM_P2
2022/10/16 00:02:50;;;;;;;0.80;0.77;;;;;;;;;;5072227;28;20548;-84
2022/10/16 00:05:20;;;;;;;0.70;0.60;;;;;;;;;;5082637;28;20454;-83
2022/10/16 00:07:47;;;;;;;0.70;0.60;;;;;;;;;;5088733;28;20427;-83
2022/10/16 00:10:14;;;;;;;0.90;0.90;;;;;;;;;;5092574;28;20468;-85
2022/10/16 00:12:40;;;;;;;0.80;0.80;;;;;;;;;;5084940;28;20537;-84
2022/10/16 00:15:11;;;;;;;0.67;0.60;;;;;;;;;;5070057;28;20500;-86
2022/10/16 00:17:38;;;;;;;0.70;0.70;;;;;;;;;;5087734;28;20566;-83
2022/10/16 00:20:07;;;;;;;0.70;0.70;;;;;;;;;;5090321;28;20437;-83
2022/10/16 00:22:34;;;;;;;0.70;0.70;;;;;;;;;;5083313;28;20915;-84
2022/10/16 00:25:01;;;;;;;0.80;0.80;;;;;;;;;;5092455;28;20441;-82
2022/10/16 00:27:29;;;;;;;0.70;0.70;;;;;;;;;;5085539;28;20473;-87
2022/10/16 00:29:56;;;;;;;0.70;0.60;;;;;;;;;;5069763;28;20458;-84
2022/10/16 00:32:30;;;;;;;0.70;0.70;;;;;;;;;;5062107;28;20661;-84
2022/10/16 00:34:57;;;;;;;0.70;0.70;;;;;;;;;;5083050;28;20443;-85
2022/10/16 00:37:23;;;;;;;0.80;0.80;;;;;;;;;;5081508;28;20483;-84
2022/10/16 00:39:50;;;;;;;0.80;0.80;;;;;;;;;;5066580;28;20798;-86
2022/10/16 00:42:18;;;;;;;0.70;0.60;;;;;;;;;;5082128;28;20419;-86
2022/10/16 00:44:50;;;;;;;0.70;0.70;;;;;;;;;;5063774;28;20458;-84
2022/10/16 00:47:21;;;;;;;0.70;0.60;;;;;;;;;;5087426;28;20949;-85
2022/10/16 00:49:52;;;;;;;0.70;0.70;;;;;;;;;;5083958;28;20488;-86
2022/10/16 00:52:19;;;;;;;0.70;0.70;;;;;;;;;;5079653;28;20933;-85
2022/10/16 00:54:47;;;;;;;0.70;0.70;;;;;;;;;;5080554;28;20933;-85
2022/10/16 00:57:14;;;;;;;0.70;0.60;;;;;;;;;;5071307;28;20477;-84
2022/10/16 00:59:45;;;;;;;0.80;0.80;;;;;;;;;;5082174;28;20814;-85
2022/10/16 01:02:13;;;;;;;0.70;0.70;;;;;;;;;;5093346;28;20430;-82
2022/10/16 01:04:41;;;;;;;0.70;0.70;;;;;;;;;;5079502;28;20439;-83
2022/10/16 01:07:24;;;;;;;0.80;0.80;;;;;;;;;;5078258;28;20568;-84
2022/10/16 01:09:57;;;;;;;0.70;0.70;;;;;;;;;;5050235;28;20450;-84
2022/10/16 01:12:30;;;;;;;0.70;0.70;;;;;;;;;;5084208;28;20454;-83
2022/10/16 01:14:59;;;;;;;0.70;0.70;;;;;;;;;;5082081;28;20477;-81
2022/10/16 01:17:28;;;;;;;0.70;0.60;;;;;;;;;;5085634;28;20966;-83
2022/10/16 01:20:08;;;;;;;0.70;0.67;;;;;;;;;;5071750;28;20446;-81
2022/10/16 01:22:44;;;;;;;0.70;0.60;;;;;;;;;;5057780;28;20440;-82
2022/10/16 01:25:13;;;;;;;0.77;0.77;;;;;;;;;;5071353;28;20452;-84
2022/10/16 01:27:43;;;;;;;0.70;0.70;;;;;;;;;;5079869;28;20434;-84
2022/10/16 01:30:13;;;;;;;0.90;0.90;;;;;;;;;;5078823;28;20834;-83
2022/10/16 01:32:45;;;;;;;3.53;1.53;;;;;;;;;;5073158;28;20437;-83
2022/10/16 01:35:18;;;;;;;0.70;0.70;;;;;;;;;;5077144;28;20504;-83
2022/10/16 01:37:50;;;;;;;0.70;0.70;;;;;;;;;;5080373;28;20525;-83
2022/10/16 01:40:30;;;;;;;0.70;0.70;;;;;;;;;;5081726;28;20462;-82
2022/10/16 01:43:04;;;;;;;0.70;0.70;;;;;;;;;;5063386;28;20459;-82
2022/10/16 01:45:33;;;;;;;0.80;0.80;;;;;;;;;;5085129;28;20449;-83
2022/10/16 01:48:00;;;;;;;0.90;0.90;;;;;;;;;;5081658;28;20547;-84
2022/10/16 01:50:31;;;;;;;0.63;0.60;;;;;;;;;;5065601;28;20476;-84
2022/10/16 01:52:59;;;;;;;0.70;0.70;;;;;;;;;;5075519;28;20450;-85
2022/10/16 01:55:29;;;;;;;0.70;0.70;;;;;;;;;;5080555;28;20444;-83
2022/10/16 01:57:57;;;;;;;0.77;0.77;;;;;;;;;;5067176;28;20473;-84
2022/10/16 02:00:27;;;;;;;0.87;0.87;;;;;;;;;;5078215;28;20433;-85
2022/10/16 02:02:57;;;;;;;0.70;0.60;;;;;;;;;;5081737;28;20445;-82
2022/10/16 02:05:26;;;;;;;0.80;0.80;;;;;;;;;;5081118;28;20524;-85
2022/10/16 02:07:56;;;;;;;0.70;0.70;;;;;;;;;;5079935;28;20521;-84
2022/10/16 02:10:30;;;;;;;0.77;0.77;;;;;;;;;;5080163;28;20447;-86
2022/10/16 02:13:00;;;;;;;0.80;0.80;;;;;;;;;;5082612;28;21002;-86
2022/10/16 02:15:29;;;;;;;0.70;0.70;;;;;;;;;;5064952;28;21070;-83
2022/10/16 02:17:56;;;;;;;0.70;0.60;;;;;;;;;;5071259;28;20490;-86
2022/10/16 02:20:29;;;;;;;0.83;0.80;;;;;;;;;;5069360;28;20527;-86
2022/10/16 02:22:58;;;;;;;0.77;0.77;;;;;;;;;;5081302;28;20435;-87
2022/10/16 02:25:30;;;;;;;0.70;0.70;;;;;;;;;;5088979;28;20473;-86
2022/10/16 02:28:02;;;;;;;0.70;0.70;;;;;;;;;;5084196;28;20928;-84
2022/10/16 02:30:33;;;;;;;0.60;0.60;;;;;;;;;;5072739;28;21058;-86
2022/10/16 02:33:02;;;;;;;0.70;0.60;;;;;;;;;;5082609;28;20442;-85
2022/10/16 02:35:31;;;;;;;0.70;0.60;;;;;;;;;;5066879;28;20470;-87
2022/10/16 02:37:59;;;;;;;0.70;0.60;;;;;;;;;;5085760;28;20497;-86
2022/10/16 02:40:31;;;;;;;0.70;0.70;;;;;;;;;;5079780;28;20457;-86
2022/10/16 02:43:03;;;;;;;0.70;0.70;;;;;;;;;;5080287;28;20434;-85
2022/10/16 02:45:39;;;;;;;0.70;0.70;;;;;;;;;;5059345;28;20443;-85
2022/10/16 02:48:08;;;;;;;0.70;0.70;;;;;;;;;;5080437;28;20458;-84
2022/10/16 02:50:38;;;;;;;1.00;1.00;;;;;;;;;;5088849;28;20469;-79
2022/10/16 02:53:09;;;;;;;0.80;0.80;;;;;;;;;;5067320;28;20534;-86
2022/10/16 02:56:00;;;;;;;0.80;0.80;;;;;;;;;;5078395;28;20426;-85
2022/10/16 02:58:30;;;;;;;0.70;0.70;;;;;;;;;;5082773;28;20513;-84
2022/10/16 03:01:01;;;;;;;0.80;0.80;;;;;;;;;;5086594;28;20488;-84
2022/10/16 03:03:30;;;;;;;0.70;0.67;;;;;;;;;;5064591;28;20481;-84
2022/10/16 03:05:57;;;;;;;0.70;0.70;;;;;;;;;;5082616;28;20482;-84
2022/10/16 03:08:26;;;;;;;0.70;0.60;;;;;;;;;;5070371;28;20452;-83
2022/10/16 03:10:53;;;;;;;0.70;0.70;;;;;;;;;;5094868;28;20444;-83
2022/10/16 03:13:21;;;;;;;0.73;0.73;;;;;;;;;;5089737;28;20489;-83
2022/10/16 03:15:49;;;;;;;0.97;0.90;;;;;;;;;;5057684;28;20465;-85
2022/10/16 03:18:18;;;;;;;0.70;0.67;;;;;;;;;;5074067;28;21059;-86
2022/10/16 03:20:46;;;;;;;0.70;0.60;;;;;;;;;;5095110;28;20477;-81
2022/10/16 03:23:15;;;;;;;0.60;0.60;;;;;;;;;;5081049;28;20453;-86
2022/10/16 03:25:45;;;;;;;0.70;0.60;;;;;;;;;;5086256;28;20540;-84
2022/10/16 03:28:17;;;;;;;0.70;0.70;;;;;;;;;;5081383;28;20445;-84
2022/10/16 03:30:44;;;;;;;0.70;0.70;;;;;;;;;;5089027;28;20477;-82
2022/10/16 03:33:10;;;;;;;1.17;0.90;;;;;;;;;;5084442;28;20450;-87
2022/10/16 03:35:40;;;;;;;0.70;0.60;;;;;;;;;;5083482;28;20446;-83
2022/10/16 03:38:07;;;;;;;0.70;0.70;;;;;;;;;;5090151;28;20883;-81
2022/10/16 03:40:35;;;;;;;0.70;0.70;;;;;;;;;;5086471;28;20440;-83
2022/10/16 03:43:02;;;;;;;0.70;0.70;;;;;;;;;;5092797;28;20469;-82
2022/10/16 03:45:29;;;;;;;0.90;0.90;;;;;;;;;;5084786;28;20982;-83
2022/10/16 03:47:56;;;;;;;0.93;0.93;;;;;;;;;;5082525;28;20453;-84
2022/10/16 03:50:24;;;;;;;0.70;0.67;;;;;;;;;;5081496;28;20483;-84
2022/10/16 03:52:52;;;;;;;0.70;0.70;;;;;;;;;;5070944;28;20946;-81
2022/10/16 03:55:19;;;;;;;0.70;0.70;;;;;;;;;;5073749;28;20454;-83
2022/10/16 03:57:46;;;;;;;0.70;0.70;;;;;;;;;;5071716;28;20445;-84
2022/10/16 04:00:13;;;;;;;1.30;1.17;;;;;;;;;;5074084;28;20816;-80
2022/10/16 04:02:40;;;;;;;0.90;0.90;;;;;;;;;;5065543;28;20465;-84
2022/10/16 04:05:08;;;;;;;0.80;0.80;;;;;;;;;;5081654;28;20451;-82
2022/10/16 04:07:34;;;;;;;0.70;0.70;;;;;;;;;;5073312;28;20506;-82
2022/10/16 04:10:03;;;;;;;0.70;0.70;;;;;;;;;;5070284;28;20458;-82
2022/10/16 04:12:31;;;;;;;0.70;0.60;;;;;;;;;;5084247;28;20450;-85
2022/10/16 04:14:59;;;;;;;0.70;0.70;;;;;;;;;;5087880;28;20447;-86
2022/10/16 04:17:25;;;;;;;0.73;0.73;;;;;;;;;;5079058;28;20861;-81
2022/10/16 04:19:53;;;;;;;0.70;0.70;;;;;;;;;;5078976;28;20465;-83
2022/10/16 04:22:21;;;;;;;0.70;0.60;;;;;;;;;;5082170;28;20475;-83
2022/10/16 04:24:49;;;;;;;0.70;0.70;;;;;;;;;;5089241;28;20440;-85
2022/10/16 04:27:17;;;;;;;0.73;0.73;;;;;;;;;;5085244;28;20453;-86
2022/10/16 04:29:44;;;;;;;0.80;0.80;;;;;;;;;;5082436;28;20947;-86
2022/10/16 04:32:15;;;;;;;0.70;0.70;;;;;;;;;;5076014;28;20484;-85
2022/10/16 04:34:42;;;;;;;0.73;0.73;;;;;;;;;;5061311;28;20971;-85
2022/10/16 04:37:11;;;;;;;0.70;0.70;;;;;;;;;;5082370;28;20467;-84
2022/10/16 04:39:37;;;;;;;0.70;0.70;;;;;;;;;;5074392;28;20822;-83
2022/10/16 04:42:04;;;;;;;0.70;0.60;;;;;;;;;;5092141;28;20553;-83
2022/10/16 04:44:33;;;;;;;0.80;0.80;;;;;;;;;;5081517;28;20832;-82
2022/10/16 04:47:00;;;;;;;0.70;0.70;;;;;;;;;;5081069;28;20480;-82
2022/10/16 04:49:27;;;;;;;1.23;1.00;;;;;;;;;;5083956;28;20454;-83
2022/10/16 04:51:54;;;;;;;0.70;0.60;;;;;;;;;;5079265;28;20527;-84
2022/10/16 04:54:22;;;;;;;0.70;0.60;;;;;;;;;;5087582;28;20440;-84
2022/10/16 04:56:51;;;;;;;0.70;0.70;;;;;;;;;;5083630;28;20461;-84
2022/10/16 04:59:18;;;;;;;0.70;0.70;;;;;;;;;;5080700;28;20498;-84
2022/10/16 05:01:47;;;;;;;0.70;0.70;;;;;;;;;;5085645;28;20955;-83
2022/10/16 05:04:14;;;;;;;0.70;0.70;;;;;;;;;;5084328;28;20446;-85
2022/10/16 05:06:42;;;;;;;0.70;0.70;;;;;;;;;;5094994;28;20485;-85
2022/10/16 05:09:08;;;;;;;0.70;0.70;;;;;;;;;;5090207;28;20991;-83
2022/10/16 05:11:35;;;;;;;0.70;0.60;;;;;;;;;;5071742;28;20498;-84
2022/10/16 05:14:03;;;;;;;0.70;0.60;;;;;;;;;;5085414;28;20429;-84
2022/10/16 05:16:31;;;;;;;0.70;0.70;;;;;;;;;;5071481;28;20471;-83
2022/10/16 05:18:59;;;;;;;0.70;0.70;;;;;;;;;;5081196;28;20465;-83
2022/10/16 05:21:46;;;;;;;0.80;0.80;;;;;;;;;;5088065;28;20469;-84
2022/10/16 05:24:14;;;;;;;0.70;0.70;;;;;;;;;;5088798;28;20491;-83
2022/10/16 05:26:42;;;;;;;0.70;0.70;;;;;;;;;;5083891;28;20491;-84
2022/10/16 05:29:09;;;;;;;0.70;0.70;;;;;;;;;;5069126;28;20448;-84
2022/10/16 05:31:37;;;;;;;0.77;0.77;;;;;;;;;;5071669;28;20488;-84
2022/10/16 05:34:05;;;;;;;0.70;0.70;;;;;;;;;;5087895;28;20881;-83
2022/10/16 05:36:33;;;;;;;0.70;0.70;;;;;;;;;;5086466;28;20466;-82
2022/10/16 05:39:00;;;;;;;0.70;0.67;;;;;;;;;;5072817;28;20463;-81
2022/10/16 05:41:28;;;;;;;0.70;0.70;;;;;;;;;;5085468;28;20942;-85
2022/10/16 05:43:55;;;;;;;0.70;0.70;;;;;;;;;;5079259;28;20479;-85
2022/10/16 05:46:23;;;;;;;0.70;0.60;;;;;;;;;;5067517;28;20446;-84
2022/10/16 05:48:51;;;;;;;0.70;0.70;;;;;;;;;;5087530;28;20777;-84
2022/10/16 05:51:21;;;;;;;0.80;0.80;;;;;;;;;;5079482;28;20474;-82
2022/10/16 05:53:48;;;;;;;0.73;0.73;;;;;;;;;;5063114;28;20507;-84
2022/10/16 05:56:15;;;;;;;0.70;0.70;;;;;;;;;;5065969;28;20509;-84
2022/10/16 05:58:41;;;;;;;0.70;0.60;;;;;;;;;;5084900;28;20514;-85
2022/10/16 06:01:10;;;;;;;0.70;0.60;;;;;;;;;;5058821;28;20885;-84
2022/10/16 06:03:37;;;;;;;0.70;0.70;;;;;;;;;;5077590;28;21015;-85
2022/10/16 06:06:13;;;;;;;0.70;0.70;;;;;;;;;;5080843;28;20966;-85
2022/10/16 06:08:45;;;;;;;0.70;0.70;;;;;;;;;;5070316;28;20445;-84
2022/10/16 06:11:36;;;;;;;0.80;0.80;;;;;;;;;;5083657;28;20426;-84
2022/10/16 06:14:06;;;;;;;0.70;0.60;;;;;;;;;;5078342;28;20466;-85
2022/10/16 06:16:34;;;;;;;0.70;0.70;;;;;;;;;;5069614;28;20455;-85
2022/10/16 06:19:01;;;;;;;0.70;0.70;;;;;;;;;;5082992;28;20828;-84
2022/10/16 06:21:29;;;;;;;1.20;1.10;;;;;;;;;;5086692;28;20553;-85
2022/10/16 06:23:58;;;;;;;0.70;0.70;;;;;;;;;;5085507;28;20494;-84
2022/10/16 06:26:27;;;;;;;0.70;0.67;;;;;;;;;;5077503;28;20437;-85
2022/10/16 06:28:55;;;;;;;0.70;0.70;;;;;;;;;;5085539;28;20495;-83
2022/10/16 06:31:22;;;;;;;0.70;0.70;;;;;;;;;;5089713;28;20448;-85
2022/10/16 06:33:50;;;;;;;0.70;0.70;;;;;;;;;;5083014;28;20809;-85
2022/10/16 06:36:17;;;;;;;0.70;0.67;;;;;;;;;;5086894;28;20469;-86
2022/10/16 06:38:44;;;;;;;0.70;0.70;;;;;;;;;;5080779;28;20558;-86
2022/10/16 06:41:14;;;;;;;0.77;0.77;;;;;;;;;;5088080;28;20968;-85
2022/10/16 06:43:41;;;;;;;0.70;0.70;;;;;;;;;;5089485;28;20470;-84
2022/10/16 06:46:10;;;;;;;0.80;0.80;;;;;;;;;;5086586;28;20432;-85
2022/10/16 06:48:37;;;;;;;0.70;0.70;;;;;;;;;;5073754;28;20496;-86
2022/10/16 06:51:05;;;;;;;0.70;0.60;;;;;;;;;;5057922;28;20469;-85
2022/10/16 06:53:32;;;;;;;0.80;0.80;;;;;;;;;;5086878;28;20443;-87
2022/10/16 06:56:10;;;;;;;0.70;0.70;;;;;;;;;;5088376;28;20433;-85
2022/10/16 06:58:38;;;;;;;0.70;0.63;;;;;;;;;;5088438;28;20800;-85
2022/10/16 07:01:05;;;;;;;0.70;0.70;;;;;;;;;;5087249;28;20501;-86
2022/10/16 07:03:32;;;;;;;0.70;0.70;;;;;;;;;;5088209;28;20514;-85
2022/10/16 07:06:01;;;;;;;0.70;0.67;;;;;;;;;;5082473;28;21052;-85
2022/10/16 07:08:33;;;;;;;0.70;0.70;;;;;;;;;;5091458;28;21030;-86
2022/10/16 07:11:01;;;;;;;0.70;0.67;;;;;;;;;;5084788;28;20452;-87
2022/10/16 07:13:28;;;;;;;0.70;0.60;;;;;;;;;;5082007;28;20783;-83
2022/10/16 07:15:56;;;;;;;0.70;0.67;;;;;;;;;;5088021;28;20507;-86
2022/10/16 07:18:26;;;;;;;0.70;0.70;;;;;;;;;;5091905;28;20436;-86
2022/10/16 07:20:55;;;;;;;0.70;0.70;;;;;;;;;;5084623;28;20494;-85
2022/10/16 07:23:23;;;;;;;0.70;0.60;;;;;;;;;;5093046;28;20808;-86
2022/10/16 07:25:54;;;;;;;0.70;0.60;;;;;;;;;;5075639;28;20507;-85
2022/10/16 07:28:21;;;;;;;0.70;0.60;;;;;;;;;;5065981;28;20463;-83
2022/10/16 07:30:48;;;;;;;0.70;0.60;;;;;;;;;;5072451;28;20454;-85
2022/10/16 07:33:16;;;;;;;0.70;0.60;;;;;;;;;;5076158;28;20518;-87
2022/10/16 07:35:50;;;;;;;0.70;0.70;;;;;;;;;;5068340;28;20470;-82
2022/10/16 07:38:21;;;;;;;0.80;0.80;;;;;;;;;;5090836;28;20490;-84
2022/10/16 07:40:48;;;;;;;0.70;0.70;;;;;;;;;;5088099;28;20514;-87
2022/10/16 07:43:16;;;;;;;0.80;0.80;;;;;;;;;;5065586;28;20445;-82
2022/10/16 07:45:49;;;;;;;0.70;0.60;;;;;;;;;;5093203;28;20801;-85
2022/10/16 07:48:20;;;;;;;0.70;0.60;;;;;;;;;;5069983;28;20568;-86
2022/10/16 07:50:46;;;;;;;0.70;0.70;;;;;;;;;;5086739;28;20830;-87
2022/10/16 07:53:15;;;;;;;0.80;0.77;;;;;;;;;;5083437;28;21028;-85
2022/10/16 07:55:42;;;;;;;0.87;0.87;;;;;;;;;;5083710;28;20969;-85
2022/10/16 07:58:09;;;;;;;0.70;0.70;;;;;;;;;;5085166;28;20426;-84
2022/10/16 08:00:36;;;;;;;0.70;0.70;;;;;;;;;;5083280;28;20476;-85
2022/10/16 08:03:04;;;;;;;0.70;0.70;;;;;;;;;;5102206;28;20976;-81
2022/10/16 08:05:33;;;;;;;0.73;0.73;;;;;;;;;;5083537;28;20825;-87
2022/10/16 08:08:00;;;;;;;1.20;1.10;;;;;;;;;;5065449;28;20492;-85
2022/10/16 08:10:28;;;;;;;0.80;0.80;;;;;;;;;;5083197;28;20473;-87
2022/10/16 08:12:55;;;;;;;0.70;0.60;;;;;;;;;;5084413;28;20944;-87
2022/10/16 08:15:22;;;;;;;0.70;0.70;;;;;;;;;;5080200;28;20439;-85
2022/10/16 08:17:54;;;;;;;0.70;0.70;;;;;;;;;;5087673;28;20533;-88
2022/10/16 08:20:21;;;;;;;0.70;0.70;;;;;;;;;;5084934;28;20855;-84
2022/10/16 08:22:49;;;;;;;0.70;0.70;;;;;;;;;;5084032;28;20572;-84
2022/10/16 08:25:16;;;;;;;0.80;0.80;;;;;;;;;;5081881;28;20458;-84
2022/10/16 08:27:45;;;;;;;0.73;0.73;;;;;;;;;;5089410;28;20431;-85
2022/10/16 08:30:12;;;;;;;0.70;0.70;;;;;;;;;;5081475;28;20929;-81
2022/10/16 08:32:41;;;;;;;0.70;0.70;;;;;;;;;;5066091;28;20553;-84
2022/10/16 08:35:09;;;;;;;0.70;0.70;;;;;;;;;;5085410;28;20878;-84
2022/10/16 08:37:37;;;;;;;0.70;0.70;;;;;;;;;;5091127;28;20469;-83
2022/10/16 08:40:13;;;;;;;0.70;0.70;;;;;;;;;;5087860;28;20476;-85
2022/10/16 08:42:52;;;;;;;0.70;0.70;;;;;;;;;;5063623;28;20435;-85
2022/10/16 08:45:32;;;;;;;0.70;0.70;;;;;;;;;;5085231;28;20833;-84
2022/10/16 08:48:03;;;;;;;0.70;0.60;;;;;;;;;;5068985;28;20546;-84
2022/10/16 08:50:32;;;;;;;0.70;0.70;;;;;;;;;;5084093;28;20567;-84
2022/10/16 08:53:03;;;;;;;0.70;0.70;;;;;;;;;;5060229;28;20897;-84
2022/10/16 08:55:34;;;;;;;0.80;0.70;;;;;;;;;;5081947;28;20495;-81
2022/10/16 08:58:00;;;;;;;1.73;1.63;;;;;;;;;;5078837;28;20521;-85
2022/10/16 09:00:28;;;;;;;0.80;0.77;;;;;;;;;;5078117;28;20466;-83
2022/10/16 09:03:03;;;;;;;0.80;0.70;;;;;;;;;;5073503;28;20545;-87
2022/10/16 09:05:54;;;;;;;0.80;0.70;;;;;;;;;;5065782;28;20543;-85
2022/10/16 09:08:27;;;;;;;0.70;0.70;;;;;;;;;;5070908;28;20458;-84
2022/10/16 09:10:58;;;;;;;0.80;0.70;;;;;;;;;;5065160;28;20445;-83
2022/10/16 09:13:28;;;;;;;0.70;0.60;;;;;;;;;;5074050;28;20433;-85
2022/10/16 09:15:59;;;;;;;0.70;0.60;;;;;;;;;;5078963;28;20463;-85
2022/10/16 09:18:32;;;;;;;0.70;0.70;;;;;;;;;;5069373;28;20950;-83
2022/10/16 09:21:06;;;;;;;0.70;0.60;;;;;;;;;;5071637;28;20506;-83
2022/10/16 09:23:34;;;;;;;0.70;0.60;;;;;;;;;;5059163;28;20448;-86
2022/10/16 09:26:05;;;;;;;0.70;0.63;;;;;;;;;;5088830;28;20507;-85
2022/10/16 09:28:31;;;;;;;0.70;0.60;;;;;;;;;;5063234;28;20452;-86
2022/10/16 09:31:01;;;;;;;0.70;0.60;;;;;;;;;;5086560;28;20476;-86
2022/10/16 09:33:29;;;;;;;0.70;0.50;;;;;;;;;;5083993;28;20976;-85
2022/10/16 09:36:03;;;;;;;0.70;0.60;;;;;;;;;;5071712;28;20557;-82
2022/10/16 09:38:33;;;;;;;0.80;0.80;;;;;;;;;;5060469;28;21001;-84
2022/10/16 09:41:04;;;;;;;0.70;0.60;;;;;;;;;;5076082;28;20462;-83
2022/10/16 09:43:56;;;;;;;0.70;0.60;;;;;;;;;;5080609;28;20471;-85
2022/10/16 09:46:26;;;;;;;1.13;0.70;;;;;;;;;;5079906;28;20446;-85
2022/10/16 09:48:55;;;;;;;0.70;0.60;;;;;;;;;;5062597;28;20986;-85
2022/10/16 09:51:27;;;;;;;0.80;0.80;;;;;;;;;;5081579;28;20483;-86
2022/10/16 09:53:55;;;;;;;0.80;0.70;;;;;;;;;;5075434;28;20450;-85
2022/10/16 09:56:24;;;;;;;0.70;0.60;;;;;;;;;;5082059;28;20541;-85
2022/10/16 09:58:53;;;;;;;0.80;0.70;;;;;;;;;;5063443;28;20474;-84
2022/10/16 10:01:22;;;;;;;0.70;0.70;;;;;;;;;;5084761;28;20471;-83
2022/10/16 10:03:50;;;;;;;0.70;0.60;;;;;;;;;;5081319;28;20426;-82
2022/10/16 10:06:23;;;;;;;0.70;0.60;;;;;;;;;;5069489;28;20590;-84
2022/10/16 10:08:54;;;;;;;0.70;0.60;;;;;;;;;;5081529;28;20507;-83
2022/10/16 10:11:36;;;;;;;0.70;0.60;;;;;;;;;;5065650;28;20489;-81
2022/10/16 10:14:28;;;;;;;0.70;0.50;;;;;;;;;;5051832;28;20454;-84
2022/10/16 10:17:16;;;;;;;0.70;0.60;;;;;;;;;;5085893;28;20426;-82
2022/10/16 10:19:47;;;;;;;0.70;0.60;;;;;;;;;;5058252;28;20512;-84
2022/10/16 10:22:18;;;;;;;0.70;0.60;;;;;;;;;;5082276;28;20482;-80
2022/10/16 10:24:54;;;;;;;0.70;0.60;;;;;;;;;;5067990;28;20442;-84
2022/10/16 10:27:26;;;;;;;0.70;0.50;;;;;;;;;;5083245;28;20793;-83
2022/10/16 10:29:59;;;;;;;0.70;0.50;;;;;;;;;;5092075;28;20464;-83
2022/10/16 10:32:28;;;;;;;0.70;0.50;;;;;;;;;;5082927;28;20469;-83
2022/10/16 10:35:14;;;;;;;0.70;0.60;;;;;;;;;;5088773;28;20944;-83
2022/10/16 10:37:47;;;;;;;0.70;0.60;;;;;;;;;;5058056;28;20436;-83
2022/10/16 10:40:34;;;;;;;0.80;0.60;;;;;;;;;;5056588;28;20560;-84
2022/10/16 10:43:05;;;;;;;0.80;0.70;;;;;;;;;;5067110;28;20786;-83
2022/10/16 10:45:38;;;;;;;0.80;0.70;;;;;;;;;;5092181;28;20972;-85
2022/10/16 10:48:12;;;;;;;0.70;0.60;;;;;;;;;;5085279;28;20452;-87
2022/10/16 10:50:45;;;;;;;0.70;0.70;;;;;;;;;;5085908;28;20565;-85
2022/10/16 10:53:18;;;;;;;0.70;0.60;;;;;;;;;;5080428;28;20427;-83
2022/10/16 10:55:51;;;;;;;0.70;0.60;;;;;;;;;;5075845;28;20441;-80
2022/10/16 10:58:42;;;;;;;0.70;0.63;;;;;;;;;;5078103;28;20438;-79
2022/10/16 11:01:13;;;;;;;0.80;0.70;;;;;;;;;;5017419;28;20504;-79
2022/10/16 11:03:48;;;;;;;0.70;0.63;;;;;;;;;;5089320;28;20824;-79
2022/10/16 11:06:17;;;;;;;0.70;0.60;;;;;;;;;;5052686;28;20996;-79
2022/10/16 11:08:47;;;;;;;0.70;0.60;;;;;;;;;;5084911;28;20426;-79
2022/10/16 11:11:17;;;;;;;0.70;0.60;;;;;;;;;;5084284;28;20492;-81
2022/10/16 11:13:48;;;;;;;0.70;0.60;;;;;;;;;;5086178;28;20489;-82
2022/10/16 11:16:17;;;;;;;1.00;0.90;;;;;;;;;;5084554;28;20458;-77
2022/10/16 11:18:50;;;;;;;0.70;0.60;;;;;;;;;;5089438;28;20441;-76
2022/10/16 11:21:20;;;;;;;2.83;0.90;;;;;;;;;;5083402;28;21013;-77
2022/10/16 11:23:50;;;;;;;0.70;0.60;;;;;;;;;;5081501;28;20806;-77
2022/10/16 11:26:20;;;;;;;0.70;0.60;;;;;;;;;;5085763;28;20521;-79
2022/10/16 11:28:48;;;;;;;0.70;0.60;;;;;;;;;;5084723;28;20459;-79
2022/10/16 11:31:17;;;;;;;0.70;0.60;;;;;;;;;;5065487;28;20450;-78
2022/10/16 11:33:46;;;;;;;0.70;0.60;;;;;;;;;;5079603;28;20483;-79
2022/10/16 11:36:16;;;;;;;0.70;0.60;;;;;;;;;;5083339;28;20951;-79
2022/10/16 11:38:48;;;;;;;0.70;0.60;;;;;;;;;;5069728;28;20492;-80
2022/10/16 11:41:22;;;;;;;0.70;0.60;;;;;;;;;;5088822;28;20835;-82
2022/10/16 11:43:53;;;;;;;0.80;0.70;;;;;;;;;;5057169;28;20457;-80
2022/10/16 11:46:21;;;;;;;0.80;0.70;;;;;;;;;;5081302;28;20451;-79
2022/10/16 11:48:57;;;;;;;0.80;0.70;;;;;;;;;;5058673;28;20446;-80
2022/10/16 11:51:28;;;;;;;0.80;0.70;;;;;;;;;;5078341;28;21009;-80
2022/10/16 11:53:59;;;;;;;0.80;0.70;;;;;;;;;;5066264;28;20994;-80
2022/10/16 11:56:26;;;;;;;0.70;0.60;;;;;;;;;;5083483;28;20483;-80
2022/10/16 11:58:57;;;;;;;0.97;0.97;;;;;;;;;;5071333;28;20458;-79
2022/10/16 12:01:28;;;;;;;0.70;0.60;;;;;;;;;;5083305;28;20979;-80
2022/10/16 12:04:01;;;;;;;0.70;0.67;;;;;;;;;;5086107;28;20931;-80
2022/10/16 12:06:31;;;;;;;0.70;0.60;;;;;;;;;;5085612;28;20478;-81
2022/10/16 12:09:00;;;;;;;0.70;0.60;;;;;;;;;;5090106;28;20450;-81
2022/10/16 12:11:35;;;;;;;2.30;1.00;;;;;;;;;;5047054;28;20435;-79
2022/10/16 12:14:04;;;;;;;0.70;0.60;;;;;;;;;;5091073;28;20442;-81
2022/10/16 12:16:31;;;;;;;0.70;0.60;;;;;;;;;;5080343;28;20475;-81
2022/10/16 12:19:11;;;;;;;0.70;0.60;;;;;;;;;;5075154;28;20443;-80
2022/10/16 12:21:39;;;;;;;0.70;0.60;;;;;;;;;;5078248;28;20470;-79
2022/10/16 12:24:20;;;;;;;0.70;0.60;;;;;;;;;;5077263;28;20456;-80
2022/10/16 12:26:48;;;;;;;0.80;0.80;;;;;;;;;;5089064;28;20458;-81
2022/10/16 12:29:22;;;;;;;0.70;0.60;;;;;;;;;;5083579;28;20435;-80
2022/10/16 12:31:49;;;;;;;0.70;0.60;;;;;;;;;;5085828;28;20456;-80
2022/10/16 12:34:27;;;;;;;0.70;0.60;;;;;;;;;;5080153;28;20449;-80
2022/10/16 12:36:54;;;;;;;0.80;0.70;;;;;;;;;;5088089;28;20449;-79
2022/10/16 12:39:23;;;;;;;0.70;0.60;;;;;;;;;;5069298;28;20453;-80
2022/10/16 12:42:00;;;;;;;0.87;0.80;;;;;;;;;;5092046;28;20470;-80
2022/10/16 12:44:31;;;;;;;0.70;0.60;;;;;;;;;;5074199;28;20447;-80
2022/10/16 12:46:58;;;;;;;0.70;0.60;;;;;;;;;;5086306;28;20844;-80
2022/10/16 12:49:30;;;;;;;0.70;0.60;;;;;;;;;;5080312;28;21005;-79
2022/10/16 12:51:58;;;;;;;0.70;0.60;;;;;;;;;;5068772;28;20508;-78
2022/10/16 12:54:28;;;;;;;0.80;0.70;;;;;;;;;;5085154;28;20438;-78
2022/10/16 12:57:09;;;;;;;0.70;0.60;;;;;;;;;;5096596;28;21047;-78
2022/10/16 12:59:42;;;;;;;0.70;0.60;;;;;;;;;;5079825;28;20446;-79
2022/10/16 13:02:24;;;;;;;0.70;0.60;;;;;;;;;;5088769;28;20959;-78
2022/10/16 13:04:58;;;;;;;0.70;0.60;;;;;;;;;;5055825;28;20447;-78
2022/10/16 13:07:35;;;;;;;0.70;0.60;;;;;;;;;;5067696;28;20513;-78
2022/10/16 13:10:09;;;;;;;0.70;0.70;;;;;;;;;;5073494;28;20553;-78
2022/10/16 13:12:46;;;;;;;0.70;0.60;;;;;;;;;;5084323;28;20938;-76
2022/10/16 13:15:35;;;;;;;0.70;0.60;;;;;;;;;;5055022;28;20447;-79
2022/10/16 13:18:07;;;;;;;0.70;0.63;;;;;;;;;;5064185;28;20509;-78
2022/10/16 13:20:36;;;;;;;0.70;0.60;;;;;;;;;;5063971;28;20814;-79
2022/10/16 13:23:08;;;;;;;0.73;0.60;;;;;;;;;;5079664;28;20455;-78
2022/10/16 13:25:44;;;;;;;0.70;0.60;;;;;;;;;;5042009;28;20444;-76
2022/10/16 13:28:12;;;;;;;0.70;0.60;;;;;;;;;;5055680;28;20440;-79
2022/10/16 13:30:40;;;;;;;0.70;0.60;;;;;;;;;;5065831;28;20465;-79
2022/10/16 13:33:12;;;;;;;0.70;0.60;;;;;;;;;;5083667;28;20483;-79
2022/10/16 13:35:47;;;;;;;0.70;0.60;;;;;;;;;;5060862;28;20465;-78
2022/10/16 13:38:15;;;;;;;0.73;0.70;;;;;;;;;;5057507;28;20973;-78
2022/10/16 13:40:50;;;;;;;0.70;0.60;;;;;;;;;;5081690;28;20491;-80
2022/10/16 13:43:18;;;;;;;0.70;0.60;;;;;;;;;;5084340;28;20991;-78
2022/10/16 13:45:52;;;;;;;0.70;0.60;;;;;;;;;;5085343;28;20433;-78
2022/10/16 13:48:20;;;;;;;0.70;0.60;;;;;;;;;;5080919;28;20429;-78
2022/10/16 13:50:57;;;;;;;0.70;0.60;;;;;;;;;;5080801;28;20458;-78
2022/10/16 13:53:24;;;;;;;0.70;0.53;;;;;;;;;;5063065;28;20423;-77
2022/10/16 13:55:52;;;;;;;0.70;0.60;;;;;;;;;;5064924;28;20558;-77
2022/10/16 13:58:19;;;;;;;0.70;0.50;;;;;;;;;;5083111;28;20467;-78
2022/10/16 14:00:55;;;;;;;0.70;0.50;;;;;;;;;;5088428;28;20466;-78
2022/10/16 14:03:22;;;;;;;0.70;0.50;;;;;;;;;;5072628;28;20814;-78
2022/10/16 14:05:54;;;;;;;0.70;0.57;;;;;;;;;;5073874;28;20545;-78
2022/10/16 14:08:22;;;;;;;0.70;0.60;;;;;;;;;;5085230;28;20977;-79
2022/10/16 14:10:51;;;;;;;0.80;0.70;;;;;;;;;;5082769;28;20427;-79
2022/10/16 14:13:21;;;;;;;0.70;0.60;;;;;;;;;;5067984;28;20812;-78
2022/10/16 14:15:51;;;;;;;0.70;0.60;;;;;;;;;;5065389;28;20455;-79
2022/10/16 14:18:21;;;;;;;0.70;0.60;;;;;;;;;;5082961;28;20496;-79
2022/10/16 14:20:49;;;;;;;0.80;0.70;;;;;;;;;;5056514;28;20470;-79
2022/10/16 14:23:20;;;;;;;0.70;0.60;;;;;;;;;;5067955;28;21019;-79
2022/10/16 14:25:48;;;;;;;0.77;0.70;;;;;;;;;;5056870;28;20459;-79
2022/10/16 14:28:17;;;;;;;0.70;0.60;;;;;;;;;;5085051;28;20482;-80
2022/10/16 14:30:52;;;;;;;0.70;0.60;;;;;;;;;;5057237;28;20446;-79
2022/10/16 14:33:21;;;;;;;0.80;0.80;;;;;;;;;;5079584;28;20450;-79
2022/10/16 14:35:58;;;;;;;0.70;0.70;;;;;;;;;;5075737;28;20462;-79
2022/10/16 14:38:25;;;;;;;0.80;0.80;;;;;;;;;;5065166;28;20424;-80
2022/10/16 14:40:52;;;;;;;0.80;0.70;;;;;;;;;;5080582;28;20458;-79
2022/10/16 14:43:20;;;;;;;0.70;0.60;;;;;;;;;;5059365;28;20462;-78
2022/10/16 14:45:51;;;;;;;0.70;0.70;;;;;;;;;;5078033;28;20467;-81
2022/10/16 14:48:20;;;;;;;0.70;0.70;;;;;;;;;;5055516;28;21110;-81
2022/10/16 14:50:47;;;;;;;0.80;0.70;;;;;;;;;;5058989;28;20474;-80
2022/10/16 14:53:14;;;;;;;0.70;0.70;;;;;;;;;;5089200;28;20454;-79
2022/10/16 14:55:42;;;;;;;0.70;0.60;;;;;;;;;;5091372;28;20457;-80
2022/10/16 14:58:13;;;;;;;0.70;0.60;;;;;;;;;;5055359;28;20990;-80
2022/10/16 15:00:40;;;;;;;0.80;0.70;;;;;;;;;;5069768;28;20471;-81
2022/10/16 15:03:07;;;;;;;0.80;0.70;;;;;;;;;;5081051;28;20466;-80